< < Back
Terminal Aerodrome Forecast


Current Version              Previous Versions:   1  2  3  4  5  6  7  8  9  

Terminal Aerodrome Forecast

419
FTUS42 KFFC 042130 AAC
TAFATL
TAF AMD
KATL 042130Z 0422/0524 27006KT P6SM FEW070 SCT250
     FM050200 25003KT P6SM FEW080 SCT250
     FM051600 25006KT P6SM SCT050 PROB30 0520/0523 6SM TSRA
      BKN040CB=

Latest METAR

942
SAUS70 KWBC 042200 RRF
MTRATL
METAR KATL 042152Z 29007KT 10SM FEW075 SCT250 35/14 A2998 RMK AO2 SLP138
T03500144


USA.gov is the U.S. government's official web portal to all federal, state and local government web resources and services.